Time;durP1;ratioP1;P1;durP2;ratioP2;P2;SDS_P1;SDS_P2;PMS_P1;PMS_P2;Temp;Humidity;BMP_temperature;BMP_pressure;BME280_temperature;BME280_humidity;BME280_pressure;Samples;Min_cycle;Max_cycle;Signal;HPM_P1;HPM_P2
2021/04/26 00:05:00;;;;;;;0.70;0.20;;;5.80;99.90;;;;;;13065548;22;20030;-83
2021/04/26 00:10:00;;;;;;;1.55;0.20;;;5.80;99.90;;;;;;13088308;22;20010;-84
2021/04/26 00:15:03;;;;;;;0.70;0.50;;;5.80;99.90;;;;;;13087619;22;20026;-83
2021/04/26 00:20:11;;;;;;;1.13;0.40;;;5.70;99.90;;;;;;13063143;22;20082;-84
2021/04/26 00:25:12;;;;;;;0.30;0.10;;;5.60;99.90;;;;;;13089445;22;20007;-84
2021/04/26 00:30:20;;;;;;;1.35;0.20;;;5.60;99.90;;;;;;13086154;22;20072;-84
2021/04/26 00:35:21;;;;;;;0.47;0.20;;;5.60;99.90;;;;;;13111835;22;20019;-83
2021/04/26 00:40:22;;;;;;;0.45;0.15;;;5.60;99.90;;;;;;13088993;22;20367;-84
2021/04/26 00:45:25;;;;;;;1.05;0.52;;;5.60;99.90;;;;;;13060457;22;20017;-83
2021/04/26 00:50:29;;;;;;;0.65;0.30;;;5.60;99.90;;;;;;13062924;22;20133;-83
2021/04/26 00:55:35;;;;;;;0.52;0.52;;;5.50;99.90;;;;;;13112731;22;20495;-84
2021/04/26 01:00:35;;;;;;;0.85;0.35;;;5.50;99.90;;;;;;13088459;22;20045;-83
2021/04/26 01:05:36;;;;;;;2.30;0.50;;;5.40;99.90;;;;;;13082361;22;20127;-84
2021/04/26 01:10:37;;;;;;;0.82;0.40;;;5.40;99.90;;;;;;13056193;22;20022;-83
2021/04/26 01:15:46;;;;;;;1.52;0.32;;;5.40;99.90;;;;;;13091397;22;20022;-83
2021/04/26 01:20:49;;;;;;;;;;;5.40;99.90;;;;;;13112004;22;20018;-83
2021/04/26 01:25:51;;;;;;;0.93;0.20;;;5.30;99.90;;;;;;13078707;22;20302;-83
2021/04/26 01:31:13;;;;;;;3.50;0.20;;;5.30;99.90;;;;;;13078190;22;20010;-84
2021/04/26 01:36:19;;;;;;;1.45;0.32;;;5.30;99.90;;;;;;13077557;22;20022;-85
2021/04/26 01:41:22;;;;;;;2.58;0.40;;;5.20;99.90;;;;;;13077371;22;20345;-83
2021/04/26 01:46:25;;;;;;;1.08;0.20;;;5.20;99.90;;;;;;13077105;22;20056;-83
2021/04/26 01:51:26;;;;;;;1.75;0.60;;;5.20;99.90;;;;;;13077117;22;20011;-83
2021/04/26 01:56:28;;;;;;;0.63;0.22;;;5.30;99.90;;;;;;13051782;22;20090;-84
2021/04/26 02:01:29;;;;;;;0.85;0.30;;;5.30;99.90;;;;;;13104504;22;20071;-83
2021/04/26 02:06:31;;;;;;;2.22;0.30;;;5.30;99.90;;;;;;13081881;22;20006;-83
2021/04/26 02:11:32;;;;;;;0.70;0.40;;;5.30;99.90;;;;;;13056279;22;20138;-84
2021/04/26 02:16:33;;;;;;;0.85;0.60;;;5.30;99.90;;;;;;13053847;22;20034;-84
2021/04/26 02:21:34;;;;;;;0.82;0.38;;;5.20;99.90;;;;;;13053619;22;20884;-83
2021/04/26 02:26:34;;;;;;;0.45;0.15;;;5.20;99.90;;;;;;13078983;22;20106;-83
2021/04/26 02:31:35;;;;;;;0.32;0.20;;;5.00;99.90;;;;;;13078552;22;20015;-83
2021/04/26 02:36:42;;;;;;;1.27;0.10;;;5.00;99.90;;;;;;13078929;22;20034;-83
2021/04/26 02:41:45;;;;;;;0.68;0.38;;;5.00;99.90;;;;;;13107360;22;20037;-83
2021/04/26 02:46:46;;;;;;;0.40;0.10;;;5.00;99.90;;;;;;13077927;22;20019;-86
2021/04/26 02:51:49;;;;;;;1.13;0.70;;;4.90;99.90;;;;;;13079165;22;20076;-85
2021/04/26 02:56:51;;;;;;;0.30;0.10;;;4.90;99.90;;;;;;13079942;22;20037;-86
2021/04/26 03:01:53;;;;;;;1.65;0.30;;;4.80;99.90;;;;;;13081619;22;20019;-85
2021/04/26 03:06:56;;;;;;;6.32;0.35;;;4.80;99.90;;;;;;13083764;22;20372;-85
2021/04/26 03:11:57;;;;;;;0.35;0.10;;;4.80;99.90;;;;;;13083809;22;20010;-85
2021/04/26 03:16:59;;;;;;;1.60;0.30;;;4.70;99.90;;;;;;13056312;22;20431;-85
2021/04/26 03:22:02;;;;;;;0.82;0.30;;;4.70;99.90;;;;;;13083741;22;20038;-85
2021/04/26 03:27:04;;;;;;;1.60;0.30;;;4.70;99.90;;;;;;13058728;22;20113;-85
2021/04/26 03:32:06;;;;;;;0.77;0.32;;;4.70;99.90;;;;;;13083280;22;20003;-85
2021/04/26 03:37:08;;;;;;;1.13;0.30;;;4.70;99.90;;;;;;13082567;22;20019;-85
2021/04/26 03:42:10;;;;;;;0.98;0.38;;;4.70;99.90;;;;;;13082936;22;20018;-84
2021/04/26 03:47:11;;;;;;;1.80;0.77;;;4.70;99.90;;;;;;13056246;22;20018;-85
2021/04/26 03:52:12;;;;;;;3.83;1.13;;;4.60;99.90;;;;;;13083891;22;20079;-84
2021/04/26 03:57:12;;;;;;;0.65;0.52;;;4.60;99.90;;;;;;13082991;22;20023;-85
2021/04/26 04:02:13;;;;;;;2.58;0.80;;;4.60;99.90;;;;;;13056554;22;20027;-85
2021/04/26 04:07:13;;;;;;;0.32;0.10;;;4.50;99.90;;;;;;13055954;22;20007;-84
2021/04/26 04:12:14;;;;;;;0.68;0.35;;;4.40;99.90;;;;;;13057248;22;20027;-85
2021/04/26 04:17:15;;;;;;;3.28;0.40;;;4.40;99.90;;;;;;13056211;22;20060;-85
2021/04/26 04:22:15;;;;;;;0.30;0.15;;;4.40;99.90;;;;;;13057326;22;20011;-84
2021/04/26 04:27:16;;;;;;;6.53;0.28;;;4.40;99.90;;;;;;13056945;22;20011;-85
2021/04/26 04:32:17;;;;;;;0.75;0.20;;;4.30;99.90;;;;;;13083125;22;20402;-85
2021/04/26 04:37:17;;;;;;;1.63;0.30;;;4.30;99.90;;;;;;13056873;22;20007;-85
2021/04/26 04:42:18;;;;;;;1.13;0.52;;;4.30;99.90;;;;;;13109175;22;20319;-85
2021/04/26 04:47:19;;;;;;;1.88;0.85;;;4.30;99.90;;;;;;13080939;22;20030;-84
2021/04/26 04:52:19;;;;;;;1.48;0.35;;;4.10;99.90;;;;;;13082431;22;20002;-85
2021/04/26 04:57:20;;;;;;;0.80;0.25;;;4.30;99.90;;;;;;13056837;22;20015;-85
2021/04/26 05:02:20;;;;;;;0.73;0.30;;;4.40;99.90;;;;;;13108612;22;20458;-85
2021/04/26 05:07:21;;;;;;;1.92;0.20;;;4.50;99.90;;;;;;13057974;22;20109;-85
2021/04/26 05:12:22;;;;;;;0.73;0.20;;;4.60;99.90;;;;;;13057069;22;20439;-85
2021/04/26 05:17:23;;;;;;;2.40;0.60;;;4.60;99.90;;;;;;13057075;22;20021;-85
2021/04/26 05:22:23;;;;;;;2.03;1.08;;;4.70;99.90;;;;;;13058907;22;20045;-85
2021/04/26 05:27:24;;;;;;;1.00;0.30;;;4.70;99.90;;;;;;13082968;22;20111;-84
2021/04/26 05:32:24;;;;;;;1.40;0.38;;;4.70;99.90;;;;;;13057531;22;20033;-84
2021/04/26 05:37:25;;;;;;;0.90;0.28;;;4.90;99.90;;;;;;13108791;22;20018;-84
2021/04/26 05:42:26;;;;;;;2.05;0.45;;;5.10;99.90;;;;;;13080249;22;20034;-84
2021/04/26 05:47:27;;;;;;;1.15;0.30;;;5.40;99.90;;;;;;13079419;22;20019;-84
2021/04/26 05:52:27;;;;;;;0.65;0.17;;;5.70;99.90;;;;;;13077728;22;20070;-85
2021/04/26 05:57:28;;;;;;;0.88;0.38;;;6.00;99.90;;;;;;13051375;22;20179;-82
2021/04/26 06:02:28;;;;;;;1.25;0.30;;;6.30;99.90;;;;;;13050921;22;20025;-82
2021/04/26 06:07:29;;;;;;;0.32;0.05;;;6.40;99.90;;;;;;13053554;22;20042;-83
2021/04/26 06:12:30;;;;;;;0.90;0.40;;;6.40;99.90;;;;;;13081645;22;20090;-83
2021/04/26 06:17:31;;;;;;;1.50;0.22;;;6.40;99.90;;;;;;13077540;22;20019;-84
2021/04/26 06:22:32;;;;;;;2.03;1.33;;;6.60;99.90;;;;;;13081696;22;20019;-83
2021/04/26 06:27:32;;;;;;;1.52;0.30;;;6.70;99.90;;;;;;13056941;22;20006;-83
2021/04/26 06:32:33;;;;;;;2.50;0.45;;;6.80;99.90;;;;;;13081975;22;20854;-86
2021/04/26 06:37:34;;;;;;;0.25;0.10;;;6.90;99.90;;;;;;13106638;22;20117;-86
2021/04/26 06:42:35;;;;;;;1.05;0.50;;;7.10;99.90;;;;;;13055846;22;20094;-85
2021/04/26 06:47:36;;;;;;;0.30;0.10;;;7.30;99.90;;;;;;13081140;22;20066;-85
2021/04/26 06:52:37;;;;;;;0.60;0.20;;;7.50;99.90;;;;;;13110840;22;20054;-85
2021/04/26 06:57:37;;;;;;;0.75;0.20;;;7.60;99.90;;;;;;13058381;22;20026;-85
2021/04/26 07:02:38;;;;;;;1.60;0.35;;;7.70;99.90;;;;;;13108559;22;20062;-85
2021/04/26 07:07:39;;;;;;;0.88;0.20;;;7.80;99.90;;;;;;13090400;22;20011;-85
2021/04/26 07:12:40;;;;;;;4.80;0.65;;;7.90;99.90;;;;;;13053956;22;20006;-85
2021/04/26 07:17:42;;;;;;;3.40;0.22;;;8.00;99.90;;;;;;13104064;22;20018;-85
2021/04/26 07:22:42;;;;;;;0.45;0.15;;;8.00;99.90;;;;;;13077840;22;20075;-86
2021/04/26 07:27:43;;;;;;;1.45;0.57;;;8.10;99.90;;;;;;13075822;22;20010;-84
2021/04/26 07:32:47;;;;;;;0.98;0.30;;;8.20;99.90;;;;;;13052203;22;20022;-85
2021/04/26 07:37:48;;;;;;;2.20;0.40;;;8.30;99.90;;;;;;13079138;22;20349;-84
2021/04/26 07:42:48;;;;;;;0.52;0.13;;;8.30;99.90;;;;;;13104266;22;20022;-85
2021/04/26 07:47:52;;;;;;;0.55;0.10;;;8.40;99.90;;;;;;13105784;22;20018;-85
2021/04/26 07:52:53;;;;;;;1.30;0.30;;;8.60;99.90;;;;;;13083641;22;20007;-85
2021/04/26 07:57:55;;;;;;;1.85;0.60;;;8.70;99.90;;;;;;13084786;22;20017;-85
2021/04/26 08:02:56;;;;;;;1.45;0.20;;;8.80;99.90;;;;;;13058380;22;20030;-84
2021/04/26 08:07:56;;;;;;;2.55;0.52;;;8.90;99.90;;;;;;13084538;22;20011;-84
2021/04/26 08:12:57;;;;;;;3.70;0.20;;;9.00;99.90;;;;;;13110412;22;20335;-85
2021/04/26 08:17:58;;;;;;;1.13;0.30;;;9.20;99.90;;;;;;13084902;22;20039;-84
2021/04/26 08:22:59;;;;;;;0.95;0.47;;;9.30;99.90;;;;;;13060515;22;20021;-85
2021/04/26 08:27:59;;;;;;;1.17;0.22;;;9.40;99.90;;;;;;13084804;22;20010;-85
2021/04/26 08:33:00;;;;;;;1.42;0.25;;;9.60;99.90;;;;;;13085541;22;20015;-84
2021/04/26 08:38:01;;;;;;;1.38;0.70;;;9.80;99.90;;;;;;13059112;22;20023;-85
2021/04/26 08:43:08;;;;;;;0.47;0.13;;;9.80;99.90;;;;;;13085272;22;20057;-85
2021/04/26 08:48:09;;;;;;;0.38;0.10;;;10.10;99.90;;;;;;13086073;22;20007;-85
2021/04/26 08:53:09;;;;;;;3.13;0.88;;;10.30;99.90;;;;;;13061546;22;20018;-85
2021/04/26 08:58:10;;;;;;;3.33;0.30;;;10.80;99.90;;;;;;13061473;22;20043;-85
2021/04/26 09:03:11;;;;;;;5.97;0.68;;;11.00;99.90;;;;;;13088188;22;19995;-85
2021/04/26 09:08:13;;;;;;;2.22;0.30;;;11.10;99.90;;;;;;13060271;22;20442;-85
2021/04/26 09:13:47;;;;;;;1.02;0.38;;;11.10;99.90;;;;;;13087254;22;20099;-85
2021/04/26 09:18:57;;;;;;;1.50;0.30;;;11.20;99.90;;;;;;13086916;22;20006;-86
2021/04/26 09:24:11;;;;;;;1.23;0.50;;;11.50;99.90;;;;;;13109958;22;20013;-85
2021/04/26 09:29:18;;;;;;;1.17;0.20;;;11.90;99.90;;;;;;13083927;22;20064;-85
2021/04/26 09:34:35;;;;;;;1.23;0.30;;;12.10;98.70;;;;;;13111892;22;20068;-85
2021/04/26 09:39:55;;;;;;;0.32;0.20;;;12.30;98.80;;;;;;13111402;22;20026;-85
2021/04/26 09:45:24;;;;;;;0.85;0.32;;;12.40;99.90;;;;;;13111772;22;20025;-83
2021/04/26 09:50:24;;;;;;;2.60;0.40;;;12.30;99.90;;;;;;13110779;22;20022;-82
2021/04/26 09:55:30;;;;;;;1.70;0.60;;;12.60;99.90;;;;;;13061578;22;20256;-83
2021/04/26 10:00:31;;;;;;;0.70;0.20;;;12.70;99.90;;;;;;13088009;22;20015;-83
2021/04/26 10:05:32;;;;;;;1.30;0.32;;;12.80;99.90;;;;;;13117135;22;20015;-82
2021/04/26 10:10:33;;;;;;;1.35;0.35;;;13.00;99.90;;;;;;13063153;22;20089;-83
2021/04/26 10:15:34;;;;;;;0.52;0.25;;;13.20;98.90;;;;;;13085674;22;20398;-84
2021/04/26 10:20:39;;;;;;;0.93;0.40;;;13.00;98.30;;;;;;13115822;22;20095;-84
2021/04/26 10:25:41;;;;;;;3.05;0.75;;;13.10;99.70;;;;;;13116172;22;20015;-84
2021/04/26 10:31:00;;;;;;;2.35;0.30;;;13.40;98.40;;;;;;13089420;22;20015;-84
2021/04/26 10:36:00;;;;;;;2.92;0.43;;;13.40;99.10;;;;;;13088791;22;20022;-84
2021/04/26 10:41:03;;;;;;;3.45;1.02;;;13.70;98.30;;;;;;13064492;22;20395;-82
2021/04/26 10:46:21;;;;;;;0.95;0.20;;;14.00;97.80;;;;;;13092976;22;20010;-84
2021/04/26 10:51:22;;;;;;;0.85;0.32;;;14.40;97.40;;;;;;13065225;22;20003;-82
2021/04/26 10:56:25;;;;;;;1.60;0.40;;;14.30;96.30;;;;;;13085726;22;20015;-82
2021/04/26 11:01:48;;;;;;;1.98;0.40;;;14.40;95.90;;;;;;13084409;22;20019;-82
2021/04/26 11:07:17;;;;;;;6.22;1.17;;;14.90;94.40;;;;;;13109823;22;20461;-82
2021/04/26 11:12:31;;;;;;;1.10;0.40;;;15.10;94.00;;;;;;13076708;22;20311;-85
2021/04/26 11:17:32;;;;;;;1.00;0.50;;;15.30;91.00;;;;;;13086061;22;20018;-85
2021/04/26 11:22:34;;;;;;;0.55;0.20;;;15.10;92.10;;;;;;13025732;22;20129;-85
2021/04/26 11:27:37;;;;;;;2.00;0.50;;;15.30;90.80;;;;;;13107837;22;20465;-84
2021/04/26 11:32:55;;;;;;;2.25;0.75;;;15.50;90.50;;;;;;13110022;22;20060;-84
2021/04/26 11:37:56;;;;;;;3.20;0.70;;;15.70;89.10;;;;;;13085053;22;20037;-84
2021/04/26 11:43:08;;;;;;;1.45;0.35;;;15.70;83.60;;;;;;13083608;22;20010;-84
2021/04/26 11:48:20;;;;;;;0.50;0.17;;;16.00;77.60;;;;;;13086931;22;20025;-81
2021/04/26 11:53:30;;;;;;;0.57;0.20;;;16.30;74.20;;;;;;13089996;22;20027;-82
2021/04/26 11:58:31;;;;;;;0.93;0.47;;;16.00;75.00;;;;;;13089064;22;20556;-82
2021/04/26 12:03:32;;;;;;;0.77;0.30;;;16.40;69.50;;;;;;13091324;22;20014;-82
2021/04/26 12:08:43;;;;;;;1.17;0.63;;;16.80;66.50;;;;;;13065753;22;20014;-83
2021/04/26 12:13:44;;;;;;;1.35;0.38;;;17.30;67.70;;;;;;13120797;22;20038;-83
2021/04/26 12:18:57;;;;;;;4.05;0.25;;;17.60;65.60;;;;;;13094215;22;20504;-83
2021/04/26 12:23:58;;;;;;;0.80;0.25;;;17.70;62.30;;;;;;13119012;22;20014;-83
2021/04/26 12:28:58;;;;;;;2.40;0.60;;;18.00;60.10;;;;;;13090133;22;20019;-83
2021/04/26 12:34:09;;;;;;;0.77;0.65;;;18.30;59.30;;;;;;13064119;22;20090;-83
2021/04/26 12:39:13;;;;;;;0.47;0.30;;;18.60;57.00;;;;;;13092481;22;20500;-83
2021/04/26 12:44:24;;;;;;;1.45;0.25;;;18.30;54.80;;;;;;13092419;22;20030;-83
2021/04/26 12:49:24;;;;;;;1.35;0.45;;;18.40;55.40;;;;;;13066461;22;20007;-82
2021/04/26 12:54:25;;;;;;;1.92;0.63;;;17.80;55.10;;;;;;13094900;22;20687;-83
2021/04/26 12:59:46;;;;;;;1.05;0.40;;;17.70;56.10;;;;;;13116119;22;20334;-83
2021/04/26 13:04:47;;;;;;;1.92;0.57;;;17.80;53.20;;;;;;13088698;22;20019;-83
2021/04/26 13:10:09;;;;;;;1.38;0.40;;;18.20;55.70;;;;;;13085870;22;20061;-83
2021/04/26 13:15:29;;;;;;;1.20;0.30;;;18.50;52.90;;;;;;13056349;22;20015;-83
2021/04/26 13:20:29;;;;;;;1.45;0.52;;;18.20;52.70;;;;;;13060611;22;20446;-83
2021/04/26 13:25:30;;;;;;;2.05;0.60;;;18.20;54.70;;;;;;13058837;22;20014;-84
2021/04/26 13:30:32;;;;;;;1.10;0.40;;;18.80;52.70;;;;;;13082455;22;20018;-84
2021/04/26 13:35:33;;;;;;;6.40;1.00;;;18.60;53.50;;;;;;13082574;22;20014;-84
2021/04/26 13:40:34;;;;;;;0.85;0.20;;;18.40;51.90;;;;;;13059760;22;20019;-84
2021/04/26 13:45:34;;;;;;;2.60;0.68;;;18.70;52.50;;;;;;13057002;22;20025;-83
2021/04/26 13:50:35;;;;;;;1.33;0.40;;;18.30;52.10;;;;;;13063231;22;20184;-84
2021/04/26 13:55:36;;;;;;;1.60;0.55;;;18.00;52.00;;;;;;13088410;22;20026;-84
2021/04/26 14:00:37;;;;;;;0.85;0.30;;;17.40;54.20;;;;;;13061540;22;20015;-83
2021/04/26 14:05:38;;;;;;;11.95;0.63;;;16.60;52.00;;;;;;13061015;22;20010;-83
2021/04/26 14:10:39;;;;;;;0.35;0.17;;;16.00;53.20;;;;;;13083883;22;20027;-83
2021/04/26 14:15:39;;;;;;;1.98;0.73;;;15.40;54.80;;;;;;13084894;22;20068;-83
2021/04/26 14:20:41;;;;;;;1.42;0.50;;;15.00;57.30;;;;;;13084837;22;20014;-83
2021/04/26 14:25:43;;;;;;;1.08;0.25;;;14.50;59.30;;;;;;13084607;22;20023;-83
2021/04/26 14:30:45;;;;;;;1.35;0.30;;;14.10;64.10;;;;;;13056056;22;20056;-83
2021/04/26 14:35:46;;;;;;;2.17;0.47;;;13.70;70.90;;;;;;13080674;22;20101;-83
2021/04/26 14:40:48;;;;;;;1.13;0.40;;;13.40;80.30;;;;;;13057138;22;20014;-83
2021/04/26 14:45:48;;;;;;;3.17;0.73;;;13.40;81.90;;;;;;13054217;22;20254;-83
2021/04/26 14:50:49;;;;;;;1.58;0.40;;;13.20;86.60;;;;;;13055710;22;20045;-83
2021/04/26 14:55:50;;;;;;;1.98;0.43;;;13.10;91.00;;;;;;13084267;22;20101;-84
2021/04/26 15:00:50;;;;;;;2.42;0.70;;;13.20;91.40;;;;;;13063002;22;20023;-84
2021/04/26 15:05:51;;;;;;;1.35;0.45;;;13.30;93.20;;;;;;13118341;22;20086;-84
2021/04/26 15:10:52;;;;;;;2.65;0.47;;;13.10;93.50;;;;;;13089513;22;20041;-83
2021/04/26 15:15:52;;;;;;;2.00;0.55;;;13.00;92.70;;;;;;13060780;22;20017;-82
2021/04/26 15:20:53;;;;;;;1.33;0.50;;;12.90;91.10;;;;;;13058604;22;20809;-83
2021/04/26 15:25:54;;;;;;;0.60;0.20;;;13.00;93.30;;;;;;13056554;22;20011;-84
2021/04/26 15:30:55;;;;;;;1.52;0.75;;;12.70;93.70;;;;;;13059573;22;20015;-83
2021/04/26 15:35:56;;;;;;;0.82;0.40;;;12.80;91.20;;;;;;13085211;22;20026;-84
2021/04/26 15:40:57;;;;;;;3.15;0.52;;;12.70;90.90;;;;;;13112816;22;20060;-85
2021/04/26 15:45:57;;;;;;;1.35;0.28;;;12.70;90.50;;;;;;13077477;22;20022;-84
2021/04/26 15:50:58;;;;;;;2.33;0.30;;;12.60;90.80;;;;;;13083031;22;20014;-83
2021/04/26 15:55:59;;;;;;;2.80;0.40;;;12.70;94.60;;;;;;13054318;22;20045;-82
2021/04/26 16:00:59;;;;;;;2.33;0.95;;;12.60;96.30;;;;;;13079478;22;20022;-83
2021/04/26 16:06:01;;;;;;;1.63;0.55;;;12.30;99.90;;;;;;13078993;22;20124;-84
2021/04/26 16:11:01;;;;;;;2.78;0.90;;;12.30;99.90;;;;;;13051575;22;20065;-84
2021/04/26 16:16:03;;;;;;;1.25;0.40;;;12.10;99.90;;;;;;13080996;22;20011;-84
2021/04/26 16:21:04;;;;;;;1.48;0.60;;;11.90;99.90;;;;;;13052800;22;20041;-83
2021/04/26 16:26:04;;;;;;;0.65;0.47;;;12.00;99.90;;;;;;13027117;22;20014;-83
2021/04/26 16:31:05;;;;;;;1.67;0.60;;;12.00;99.90;;;;;;13080539;22;20081;-83
2021/04/26 16:36:06;;;;;;;0.80;0.30;;;12.00;99.90;;;;;;13054481;22;20101;-83
2021/04/26 16:41:07;;;;;;;1.88;0.63;;;11.80;99.90;;;;;;13079095;22;20093;-83
2021/04/26 16:46:07;;;;;;;1.83;0.60;;;11.80;99.90;;;;;;13080963;22;20023;-86
2021/04/26 16:51:09;;;;;;;5.30;1.85;;;11.70;99.90;;;;;;13047902;22;20007;-84
2021/04/26 16:56:10;;;;;;;2.00;0.70;;;11.60;99.90;;;;;;13078521;22;20042;-84
2021/04/26 17:01:11;;;;;;;1.60;0.40;;;11.50;99.90;;;;;;13104735;22;20630;-84
2021/04/26 17:06:12;;;;;;;2.13;0.82;;;11.50;99.90;;;;;;13079090;22;20062;-83
2021/04/26 17:11:12;;;;;;;1.40;0.50;;;11.40;99.90;;;;;;13056338;22;20091;-84
2021/04/26 17:16:13;;;;;;;3.28;0.45;;;11.30;99.90;;;;;;13084302;22;20015;-85
2021/04/26 17:21:15;;;;;;;1.25;0.30;;;11.30;99.90;;;;;;13116677;22;20006;-85
2021/04/26 17:26:19;;;;;;;1.58;0.55;;;11.20;99.90;;;;;;13054970;22;20026;-86
2021/04/26 17:31:19;;;;;;;1.20;0.40;;;11.10;99.90;;;;;;13106629;22;20006;-85
2021/04/26 17:36:20;;;;;;;0.50;0.22;;;11.10;99.90;;;;;;13105419;22;20019;-86
2021/04/26 17:41:22;;;;;;;0.65;0.38;;;10.80;99.90;;;;;;13080714;22;20280;-85
2021/04/26 17:46:23;;;;;;;1.27;0.50;;;10.80;99.90;;;;;;13104592;22;20003;-85
2021/04/26 17:51:25;;;;;;;1.98;0.70;;;10.70;99.90;;;;;;13079301;22;20098;-85
2021/04/26 17:56:26;;;;;;;0.95;0.38;;;10.80;99.90;;;;;;13078522;22;20097;-86
2021/04/26 18:01:26;;;;;;;1.35;0.40;;;10.70;99.90;;;;;;13052608;22;20061;-85
2021/04/26 18:06:27;;;;;;;1.00;0.50;;;10.60;99.90;;;;;;13052767;22;20041;-85
2021/04/26 18:11:28;;;;;;;1.38;0.50;;;10.60;99.90;;;;;;13082688;22;20011;-85
2021/04/26 18:16:29;;;;;;;2.22;0.57;;;10.50;99.90;;;;;;13082196;22;20025;-86
2021/04/26 18:21:30;;;;;;;2.97;0.38;;;10.30;99.90;;;;;;13082693;22;20350;-85
2021/04/26 18:26:31;;;;;;;3.25;0.70;;;10.30;99.90;;;;;;13056798;22;20026;-86
2021/04/26 18:31:32;;;;;;;1.65;0.52;;;10.20;99.90;;;;;;13083432;22;20011;-85
2021/04/26 18:36:32;;;;;;;3.35;0.77;;;10.00;99.90;;;;;;13110358;22;20041;-86
2021/04/26 18:41:34;;;;;;;1.40;0.50;;;9.90;99.90;;;;;;13083411;22;20014;-85
2021/04/26 18:46:35;;;;;;;3.35;0.88;;;9.90;99.90;;;;;;13083203;22;20100;-86
2021/04/26 18:51:35;;;;;;;2.08;1.00;;;9.80;99.90;;;;;;13056861;22;20580;-85
2021/04/26 18:56:38;;;;;;;1.88;0.55;;;9.60;99.90;;;;;;13082419;22;20022;-86
2021/04/26 19:01:39;;;;;;;3.05;0.82;;;9.60;99.90;;;;;;13055310;22;20088;-84
2021/04/26 19:06:41;;;;;;;1.52;0.55;;;9.50;99.90;;;;;;13057341;22;20327;-86
2021/04/26 19:11:46;;;;;;;4.82;2.08;;;9.40;99.90;;;;;;13080343;22;20003;-84
2021/04/26 19:16:47;;;;;;;1.33;0.55;;;9.40;99.90;;;;;;13080091;22;20469;-84
2021/04/26 19:21:48;;;;;;;1.50;0.57;;;9.30;99.90;;;;;;13055548;22;20053;-84
2021/04/26 19:26:48;;;;;;;1.17;0.45;;;9.30;99.90;;;;;;13081348;22;20018;-85
2021/04/26 19:31:49;;;;;;;1.90;1.00;;;9.30;99.90;;;;;;13053547;22;20021;-86
2021/04/26 19:36:50;;;;;;;1.98;0.70;;;9.30;99.90;;;;;;13035670;22;20052;-84
2021/04/26 19:41:50;;;;;;;2.47;1.08;;;9.20;99.90;;;;;;13048021;22;20034;-84
2021/04/26 19:46:51;;;;;;;1.23;0.47;;;9.10;99.90;;;;;;13051462;22;20006;-84
2021/04/26 19:51:51;;;;;;;2.42;1.00;;;9.10;99.90;;;;;;13053017;22;20093;-84
2021/04/26 19:56:52;;;;;;;4.80;0.77;;;9.10;99.90;;;;;;13032265;22;20019;-83
2021/04/26 20:01:53;;;;;;;3.72;0.55;;;9.00;99.90;;;;;;13046957;22;20038;-84
2021/04/26 20:06:53;;;;;;;3.60;1.40;;;9.00;99.90;;;;;;13045879;22;20014;-84
2021/04/26 20:11:54;;;;;;;2.88;1.13;;;9.00;99.90;;;;;;13073910;22;20053;-84
2021/04/26 20:16:55;;;;;;;1.55;0.70;;;8.80;99.90;;;;;;13070925;22;20604;-84
2021/04/26 20:21:55;;;;;;;2.13;0.65;;;8.80;99.90;;;;;;13098668;22;20014;-84
2021/04/26 20:26:56;;;;;;;2.60;0.90;;;8.70;99.90;;;;;;13050650;22;20097;-84
2021/04/26 20:31:57;;;;;;;1.15;0.47;;;8.60;99.90;;;;;;13074546;22;20083;-84
2021/04/26 20:36:57;;;;;;;1.15;0.40;;;8.60;99.90;;;;;;13069676;22;20018;-84
2021/04/26 20:41:58;;;;;;;1.27;0.50;;;8.60;99.90;;;;;;13047666;22;20096;-84
2021/04/26 20:46:59;;;;;;;1.08;0.30;;;8.60;99.90;;;;;;13077104;22;20291;-84
2021/04/26 20:51:59;;;;;;;1.77;0.47;;;8.50;99.90;;;;;;13077300;22;20007;-84
2021/04/26 20:57:00;;;;;;;2.47;1.02;;;8.40;99.90;;;;;;13099774;22;20027;-85
2021/04/26 21:02:01;;;;;;;2.67;0.93;;;8.40;99.90;;;;;;13051126;22;20011;-84
2021/04/26 21:07:02;;;;;;;2.72;0.70;;;8.30;99.90;;;;;;13080176;22;20005;-84
2021/04/26 21:12:03;;;;;;;1.63;0.55;;;8.20;99.90;;;;;;13079378;22;20014;-84
2021/04/26 21:17:04;;;;;;;1.13;0.40;;;8.10;99.90;;;;;;13079258;22;20015;-84
2021/04/26 21:22:04;;;;;;;0.70;0.20;;;8.00;99.90;;;;;;13101507;22;20003;-84
2021/04/26 21:27:07;;;;;;;1.95;0.60;;;8.00;99.90;;;;;;13079175;22;20064;-84
2021/04/26 21:32:07;;;;;;;1.38;0.40;;;7.90;99.90;;;;;;13080454;22;20002;-84
2021/04/26 21:37:08;;;;;;;1.48;0.60;;;7.80;99.90;;;;;;13054431;22;20018;-84
2021/04/26 21:42:09;;;;;;;1.08;0.57;;;7.70;99.90;;;;;;13054708;22;20018;-84
2021/04/26 21:47:11;;;;;;;0.93;0.38;;;7.70;99.90;;;;;;13080343;22;20003;-84
2021/04/26 21:52:11;;;;;;;5.00;2.60;;;7.60;99.90;;;;;;13081708;22;20034;-84
2021/04/26 21:57:12;;;;;;;3.15;0.65;;;7.50;99.90;;;;;;13081270;22;20536;-84
2021/04/26 22:02:12;;;;;;;5.35;0.88;;;7.30;99.90;;;;;;13081655;22;20067;-84
2021/04/26 22:07:13;;;;;;;1.38;0.45;;;7.40;99.90;;;;;;13082164;22;20015;-84
2021/04/26 22:12:14;;;;;;;1.38;0.60;;;7.30;99.90;;;;;;13083703;22;20781;-84
2021/04/26 22:17:14;;;;;;;2.45;0.52;;;7.20;99.90;;;;;;13109233;22;20021;-83
2021/04/26 22:22:15;;;;;;;0.68;0.25;;;7.10;99.90;;;;;;13067716;22;20014;-84
2021/04/26 22:27:16;;;;;;;2.47;0.30;;;7.10;99.90;;;;;;13052986;22;20011;-84
2021/04/26 22:32:17;;;;;;;1.95;0.70;;;7.00;99.90;;;;;;13052357;22;20610;-84
2021/04/26 22:37:18;;;;;;;1.20;0.40;;;6.90;99.90;;;;;;13051799;22;20014;-84
2021/04/26 22:42:19;;;;;;;1.23;0.40;;;6.90;99.90;;;;;;13078064;22;20049;-84
2021/04/26 22:47:19;;;;;;;2.58;0.50;;;6.80;99.90;;;;;;13050854;22;20014;-84
2021/04/26 22:52:20;;;;;;;1.60;0.45;;;6.80;99.90;;;;;;13050820;22;20319;-83
2021/04/26 22:57:21;;;;;;;2.70;1.30;;;6.70;99.90;;;;;;13052189;22;20307;-84
2021/04/26 23:02:21;;;;;;;1.55;0.52;;;6.60;99.90;;;;;;13051798;22;20076;-84
2021/04/26 23:07:22;;;;;;;2.03;0.40;;;6.50;99.90;;;;;;13077472;22;20003;-84
2021/04/26 23:12:23;;;;;;;1.15;0.40;;;6.40;99.90;;;;;;13051860;22;20010;-84
2021/04/26 23:17:23;;;;;;;1.90;0.73;;;6.50;99.90;;;;;;13078851;22;20012;-84
2021/04/26 23:22:24;;;;;;;2.53;1.13;;;6.40;99.90;;;;;;13056610;22;20044;-84
2021/04/26 23:27:25;;;;;;;0.82;0.22;;;6.30;99.90;;;;;;13057492;22;20022;-84
2021/04/26 23:32:26;;;;;;;1.73;0.60;;;6.10;99.90;;;;;;13108325;22;20076;-84
2021/04/26 23:37:26;;;;;;;1.02;0.28;;;6.10;99.90;;;;;;13107175;22;20335;-84
2021/04/26 23:42:27;;;;;;;1.77;0.40;;;6.00;99.90;;;;;;13082912;22;20078;-84
2021/04/26 23:47:28;;;;;;;2.22;0.68;;;6.00;99.90;;;;;;13108851;22;20120;-84
2021/04/26 23:52:28;;;;;;;2.35;0.57;;;6.00;99.90;;;;;;13057212;22;20011;-84
2021/04/26 23:57:29;;;;;;;1.65;1.02;;;5.90;99.90;;;;;;13054456;22;20909;-84
